Time;durP1;ratioP1;P1;durP2;ratioP2;P2;SDS_P1;SDS_P2;PMS_P1;PMS_P2;Temp;Humidity;BMP_temperature;BMP_pressure;BME280_temperature;BME280_humidity;BME280_pressure;Samples;Min_cycle;Max_cycle;Signal;HPM_P1;HPM_P2
2022/10/13 00:00:47;;;;;;;;;;;;;;;;;;5092550;28;1167;-49
2022/10/13 00:03:14;;;;;;;;;;;;;;;;;;5093968;28;9691;-44
2022/10/13 00:05:43;;;;;;;;;;;;;;;;;;5092201;28;1066;-47
2022/10/13 00:08:10;;;;;;;;;;;;;;;;;;5092553;28;925;-49
2022/10/13 00:10:44;;;;;;;;;;;;;;;;;;5092367;28;967;-48
2022/10/13 00:13:11;;;;;;;;;;;;;;;;;;5092494;28;1063;-49
2022/10/13 00:15:40;;;;;;;;;;;;;;;;;;5092179;28;1916;-42
2022/10/13 00:18:07;;;;;;;;;;;;;;;;;;5092565;28;1440;-47
2022/10/13 00:20:34;;;;;;;;;;;;;;;;;;5092553;28;1016;-52
2022/10/13 00:23:01;;;;;;;;;;;;;;;;;;5092045;28;1052;-48
2022/10/13 00:25:28;;;;;;;;;;;;;;;;;;5092010;28;892;-47
2022/10/13 00:27:56;;;;;;;;;;;;;;;;;;5095533;28;1398;-45
2022/10/13 00:30:32;;;;;;;;;;;;;;;;;;5112130;28;1097;-45
2022/10/13 00:33:00;;;;;;;;;;;;;;;;;;5107748;28;1130;-47
2022/10/13 00:35:27;;;;;;;;;;;;;;;;;;5091822;28;1906;-45
2022/10/13 00:37:54;;;;;;;;;;;;;;;;;;5091832;28;912;-50
2022/10/13 00:40:21;;;;;;;;;;;;;;;;;;5091275;28;1025;-45
2022/10/13 00:42:48;;;;;;;;;;;;;;;;;;5089637;28;1164;-48
2022/10/13 00:45:25;;;;;;;;;;;;;;;;;;5089654;28;1044;-47
2022/10/13 00:47:55;;;;;;;;;;;;;;;;;;5089471;28;903;-45
2022/10/13 00:50:28;;;;;;;;;;;;;;;;;;5089704;28;1281;-43
2022/10/13 00:52:56;;;;;;;;;;;;;;;;;;5089879;28;955;-48
2022/10/13 00:55:28;;;;;;;;;;;;;;;;;;5089533;28;1975;-44
2022/10/13 00:57:58;;;;;;;;;;;;;;;;;;5090867;28;1011;-46
2022/10/13 01:00:31;;;;;;;;;;;;;;;;;;5091304;28;1646;-50
2022/10/13 01:02:59;;;;;;;;;;;;;;;;;;5091399;28;1079;-50
2022/10/13 01:05:26;;;;;;;;;;;;;;;;;;5090779;28;1150;-48
2022/10/13 01:07:54;;;;;;;;;;;;;;;;;;5091345;28;1346;-42
2022/10/13 01:10:44;;;;;;;;;;;;;;;;;;5091485;28;1063;-43
2022/10/13 01:13:22;;;;;;;;;;;;;;;;;;5086094;28;1868;-48
2022/10/13 01:15:56;;;;;;;;;;;;;;;;;;5091086;28;1903;-48
2022/10/13 01:18:32;;;;;;;;;;;;;;;;;;5091412;28;1359;-49
2022/10/13 01:21:05;;;;;;;;;;;;;;;;;;5091335;28;1278;-48
2022/10/13 01:23:50;;;;;;;;;;;;;;;;;;5091106;28;997;-47
2022/10/13 01:26:32;;;;;;;;;;;;;;;;;;5073100;28;2325;-48
2022/10/13 01:29:05;;;;;;;;;;;;;;;;;;5090759;28;1002;-48
2022/10/13 01:31:35;;;;;;;;;;;;;;;;;;5091032;28;1058;-44
2022/10/13 01:34:21;;;;;;;;;;;;;;;;;;5102887;28;1201;-45
2022/10/13 01:36:54;;;;;;;;;;;;;;;;;;5111330;28;1915;-45
2022/10/13 01:39:24;;;;;;;;;;;;;;;;;;5111419;28;1062;-48
2022/10/13 01:41:56;;;;;;;;;;;;;;;;;;5111418;28;1252;-48
2022/10/13 01:44:33;;;;;;;;;;;;;;;;;;5111137;28;1197;-48
2022/10/13 01:47:01;;;;;;;;;;;;;;;;;;5111140;28;1190;-44
2022/10/13 01:49:30;;;;;;;;;;;;;;;;;;5111399;28;973;-48
2022/10/13 01:52:00;;;;;;;;;;;;;;;;;;5111300;28;1042;-48
2022/10/13 01:54:30;;;;;;;;;;;;;;;;;;5111395;28;1002;-49
2022/10/13 01:56:58;;;;;;;;;;;;;;;;;;5111210;28;1910;-51
2022/10/13 01:59:26;;;;;;;;;;;;;;;;;;5111274;28;1283;-49
2022/10/13 02:02:01;;;;;;;;;;;;;;;;;;5111328;28;1338;-50
2022/10/13 02:04:31;;;;;;;;;;;;;;;;;;5111042;28;978;-49
2022/10/13 02:07:01;;;;;;;;;;;;;;;;;;5110971;28;1221;-47
2022/10/13 02:09:28;;;;;;;;;;;;;;;;;;5111009;28;950;-48
2022/10/13 02:11:58;;;;;;;;;;;;;;;;;;5111097;28;1059;-49
2022/10/13 02:14:32;;;;;;;;;;;;;;;;;;5111154;28;1088;-50
2022/10/13 02:17:00;;;;;;;;;;;;;;;;;;5112500;28;1930;-47
2022/10/13 02:19:27;;;;;;;;;;;;;;;;;;5114862;28;1148;-46
2022/10/13 02:21:55;;;;;;;;;;;;;;;;;;5114910;28;1527;-54
2022/10/13 02:24:22;;;;;;;;;;;;;;;;;;5114625;28;1169;-44
2022/10/13 02:26:50;;;;;;;;;;;;;;;;;;5114608;28;1057;-49
2022/10/13 02:29:19;;;;;;;;;;;;;;;;;;5114454;28;1065;-47
2022/10/13 02:31:46;;;;;;;;;;;;;;;;;;5114942;28;1144;-49
2022/10/13 02:34:13;;;;;;;;;;;;;;;;;;5100009;28;1193;-48
2022/10/13 02:36:45;;;;;;;;;;;;;;;;;;5094396;28;1986;-50
2022/10/13 02:39:12;;;;;;;;;;;;;;;;;;5094176;28;978;-46
2022/10/13 02:41:39;;;;;;;;;;;;;;;;;;5094183;28;982;-49
2022/10/13 02:44:06;;;;;;;;;;;;;;;;;;5093832;28;980;-50
2022/10/13 02:46:39;;;;;;;;;;;;;;;;;;5093855;28;1136;-48
2022/10/13 02:49:06;;;;;;;;;;;;;;;;;;5093891;28;1346;-52
2022/10/13 02:51:33;;;;;;;;;;;;;;;;;;5093559;28;1052;-48
2022/10/13 02:54:05;;;;;;;;;;;;;;;;;;5093602;28;1068;-49
2022/10/13 02:56:32;;;;;;;;;;;;;;;;;;5093635;28;1910;-48
2022/10/13 02:58:59;;;;;;;;;;;;;;;;;;5093784;28;927;-49
2022/10/13 03:01:26;;;;;;;;;;;;;;;;;;5093685;28;1093;-46
2022/10/13 03:03:53;;;;;;;;;;;;;;;;;;5093578;28;1140;-48
2022/10/13 03:06:20;;;;;;;;;;;;;;;;;;5093314;28;1077;-46
2022/10/13 03:08:48;;;;;;;;;;;;;;;;;;5093734;28;955;-48
2022/10/13 03:11:15;;;;;;;;;;;;;;;;;;5093462;28;1272;-50
2022/10/13 03:13:42;;;;;;;;;;;;;;;;;;5093485;28;1097;-50
2022/10/13 03:16:09;;;;;;;;;;;;;;;;;;5093390;28;1918;-50
2022/10/13 03:18:36;;;;;;;;;;;;;;;;;;5093286;28;1204;-49
2022/10/13 03:21:04;;;;;;;;;;;;;;;;;;5093273;28;1196;-50
2022/10/13 03:23:32;;;;;;;;;;;;;;;;;;5093035;28;1019;-48
2022/10/13 03:25:59;;;;;;;;;;;;;;;;;;5092996;28;2005;-48
2022/10/13 03:28:27;;;;;;;;;;;;;;;;;;5092557;28;1405;-52
2022/10/13 03:31:04;;;;;;;;;;;;;;;;;;5093075;28;1097;-52
2022/10/13 03:33:31;;;;;;;;;;;;;;;;;;5101901;28;1110;-47
2022/10/13 03:36:03;;;;;;;;;;;;;;;;;;5113249;28;1913;-44
2022/10/13 03:38:31;;;;;;;;;;;;;;;;;;5113533;28;1313;-50
2022/10/13 03:41:03;;;;;;;;;;;;;;;;;;5113271;28;907;-45
2022/10/13 03:43:30;;;;;;;;;;;;;;;;;;5113317;27;1006;-46
2022/10/13 03:45:58;;;;;;;;;;;;;;;;;;5113038;28;1028;-49
2022/10/13 03:48:26;;;;;;;;;;;;;;;;;;5113009;28;1108;-47
2022/10/13 03:50:53;;;;;;;;;;;;;;;;;;5113160;28;1074;-47
2022/10/13 03:53:21;;;;;;;;;;;;;;;;;;5113231;28;1040;-52
2022/10/13 03:55:49;;;;;;;;;;;;;;;;;;5113238;28;1978;-46
2022/10/13 03:58:17;;;;;;;;;;;;;;;;;;5111852;28;1148;-49
2022/10/13 04:00:45;;;;;;;;;;;;;;;;;;5112942;28;1208;-47
2022/10/13 04:03:12;;;;;;;;;;;;;;;;;;5111361;28;1314;-52
2022/10/13 04:05:40;;;;;;;;;;;;;;;;;;5111492;28;1321;-49
2022/10/13 04:08:07;;;;;;;;;;;;;;;;;;5112461;28;1041;-52
2022/10/13 04:10:34;;;;;;;;;;;;;;;;;;5112881;28;1251;-48
2022/10/13 04:13:01;;;;;;;;;;;;;;;;;;5112974;28;1014;-47
2022/10/13 04:15:28;;;;;;;;;;;;;;;;;;5112449;28;1154;-48
2022/10/13 04:17:55;;;;;;;;;;;;;;;;;;5112533;28;2047;-52
2022/10/13 04:20:22;;;;;;;;;;;;;;;;;;5112758;27;997;-47
2022/10/13 04:22:52;;;;;;;;;;;;;;;;;;5112630;28;1013;-48
2022/10/13 04:25:19;;;;;;;;;;;;;;;;;;5112621;28;1422;-47
2022/10/13 04:27:47;;;;;;;;;;;;;;;;;;5112269;28;1058;-50
2022/10/13 04:30:14;;;;;;;;;;;;;;;;;;5112219;28;1209;-46
2022/10/13 04:32:41;;;;;;;;;;;;;;;;;;5112198;28;1118;-46
2022/10/13 04:35:09;;;;;;;;;;;;;;;;;;5112334;28;1018;-54
2022/10/13 04:37:36;;;;;;;;;;;;;;;;;;5112209;28;1910;-50
2022/10/13 04:40:08;;;;;;;;;;;;;;;;;;5111650;28;1189;-48
2022/10/13 04:42:35;;;;;;;;;;;;;;;;;;5111904;28;1001;-51
2022/10/13 04:45:02;;;;;;;;;;;;;;;;;;5111887;28;1185;-50
2022/10/13 04:47:29;;;;;;;;;;;;;;;;;;5111985;28;1178;-50
2022/10/13 04:50:01;;;;;;;;;;;;;;;;;;5111906;28;1225;-49
2022/10/13 04:52:28;;;;;;;;;;;;;;;;;;5112248;28;1370;-45
2022/10/13 04:54:56;;;;;;;;;;;;;;;;;;5111939;28;1768;-46
2022/10/13 04:57:23;;;;;;;;;;;;;;;;;;5111823;28;1994;-48
2022/10/13 04:59:50;;;;;;;;;;;;;;;;;;5111955;28;899;-48
2022/10/13 05:02:18;;;;;;;;;;;;;;;;;;5111336;28;1454;-50
2022/10/13 05:04:45;;;;;;;;;;;;;;;;;;5111730;28;1085;-49
2022/10/13 05:07:12;;;;;;;;;;;;;;;;;;5111548;28;1090;-50
2022/10/13 05:09:44;;;;;;;;;;;;;;;;;;5111709;28;998;-49
2022/10/13 05:12:11;;;;;;;;;;;;;;;;;;5111770;28;1048;-52
2022/10/13 05:14:38;;;;;;;;;;;;;;;;;;5111568;28;1086;-50
2022/10/13 05:17:06;;;;;;;;;;;;;;;;;;5111565;28;1972;-48
2022/10/13 05:19:33;;;;;;;;;;;;;;;;;;5111508;28;1176;-47
2022/10/13 05:22:00;;;;;;;;;;;;;;;;;;5111393;28;1097;-48
2022/10/13 05:24:35;;;;;;;;;;;;;;;;;;5111583;28;903;-57
2022/10/13 05:27:03;;;;;;;;;;;;;;;;;;5111428;28;1017;-50
2022/10/13 05:29:31;;;;;;;;;;;;;;;;;;5111530;28;1037;-52
2022/10/13 05:31:58;;;;;;;;;;;;;;;;;;5111732;28;1153;-47
2022/10/13 05:34:25;;;;;;;;;;;;;;;;;;5095393;28;1205;-53
2022/10/13 05:36:52;;;;;;;;;;;;;;;;;;5091122;28;1902;-51
2022/10/13 05:39:19;;;;;;;;;;;;;;;;;;5090866;28;1153;-46
2022/10/13 05:41:46;;;;;;;;;;;;;;;;;;5090799;28;977;-47
2022/10/13 05:44:19;;;;;;;;;;;;;;;;;;5090891;28;1123;-51
2022/10/13 05:46:52;;;;;;;;;;;;;;;;;;5091183;28;1115;-48
2022/10/13 05:49:19;;;;;;;;;;;;;;;;;;5091062;28;1067;-45
2022/10/13 05:51:47;;;;;;;;;;;;;;;;;;5091970;28;1125;-48
2022/10/13 05:54:18;;;;;;;;;;;;;;;;;;5094701;28;1050;-47
2022/10/13 05:56:51;;;;;;;;;;;;;;;;;;5095158;28;1902;-43
2022/10/13 05:59:20;;;;;;;;;;;;;;;;;;5094687;28;1373;-46
2022/10/13 06:01:52;;;;;;;;;;;;;;;;;;5094772;28;1199;-50
2022/10/13 06:04:23;;;;;;;;;;;;;;;;;;5094687;28;900;-48
2022/10/13 06:06:51;;;;;;;;;;;;;;;;;;5094707;28;1064;-47
2022/10/13 06:09:18;;;;;;;;;;;;;;;;;;5094612;28;1304;-50
2022/10/13 06:11:45;;;;;;;;;;;;;;;;;;5095017;28;1384;-49
2022/10/13 06:14:12;;;;;;;;;;;;;;;;;;5094894;28;1247;-46
2022/10/13 06:16:40;;;;;;;;;;;;;;;;;;5094709;28;1973;-51
2022/10/13 06:19:07;;;;;;;;;;;;;;;;;;5094542;28;950;-51
2022/10/13 06:21:34;;;;;;;;;;;;;;;;;;5094155;28;1018;-46
2022/10/13 06:24:02;;;;;;;;;;;;;;;;;;5094414;28;939;-42
2022/10/13 06:26:29;;;;;;;;;;;;;;;;;;5094844;28;1034;-48
2022/10/13 06:28:57;;;;;;;;;;;;;;;;;;5094877;28;1397;-50
2022/10/13 06:31:27;;;;;;;;;;;;;;;;;;5094494;28;1018;-48
2022/10/13 06:33:54;;;;;;;;;;;;;;;;;;5106194;28;1263;-48
2022/10/13 06:36:21;;;;;;;;;;;;;;;;;;5114666;28;1007;-46
2022/10/13 06:38:48;;;;;;;;;;;;;;;;;;5114279;28;2029;-48
2022/10/13 06:41:19;;;;;;;;;;;;;;;;;;5114334;28;975;-47
2022/10/13 06:43:46;;;;;;;;;;;;;;;;;;5114193;28;1103;-49
2022/10/13 06:46:15;;;;;;;;;;;;;;;;;;5113175;28;1002;-48
2022/10/13 06:48:42;;;;;;;;;;;;;;;;;;5114483;28;1184;-46
2022/10/13 06:51:10;;;;;;;;;;;;;;;;;;5114383;28;1003;-48
2022/10/13 06:53:37;;;;;;;;;;;;;;;;;;5114240;28;1015;-51
2022/10/13 06:56:05;;;;;;;;;;;;;;;;;;5114240;28;1147;-48
2022/10/13 06:58:36;;;;;;;;;;;;;;;;;;5114292;28;1913;-52
2022/10/13 07:01:04;;;;;;;;;;;;;;;;;;5113925;28;1191;-52
2022/10/13 07:03:31;;;;;;;;;;;;;;;;;;5112955;28;1110;-49
2022/10/13 07:05:59;;;;;;;;;;;;;;;;;;5114339;28;1066;-50
2022/10/13 07:08:26;;;;;;;;;;;;;;;;;;5113937;28;1353;-43
2022/10/13 07:10:53;;;;;;;;;;;;;;;;;;5113721;28;1193;-48
2022/10/13 07:13:20;;;;;;;;;;;;;;;;;;5113953;28;1168;-51
2022/10/13 07:15:50;;;;;;;;;;;;;;;;;;5113973;28;1643;-52
2022/10/13 07:18:17;;;;;;;;;;;;;;;;;;5113748;28;1986;-51
2022/10/13 07:20:44;;;;;;;;;;;;;;;;;;5113457;28;1023;-46
2022/10/13 07:23:11;;;;;;;;;;;;;;;;;;5113644;28;957;-47
2022/10/13 07:25:38;;;;;;;;;;;;;;;;;;5113599;28;945;-52
2022/10/13 07:28:06;;;;;;;;;;;;;;;;;;5113516;28;1104;-51
2022/10/13 07:30:33;;;;;;;;;;;;;;;;;;5114031;28;1053;-49
2022/10/13 07:33:01;;;;;;;;;;;;;;;;;;5109003;28;1415;-48
2022/10/13 07:35:28;;;;;;;;;;;;;;;;;;5093374;28;1099;-52
2022/10/13 07:37:56;;;;;;;;;;;;;;;;;;5093179;28;1984;-48
2022/10/13 07:40:24;;;;;;;;;;;;;;;;;;5092798;28;1354;-50
2022/10/13 07:42:51;;;;;;;;;;;;;;;;;;5093046;28;1054;-47
2022/10/13 07:45:18;;;;;;;;;;;;;;;;;;5092928;28;1012;-49
2022/10/13 07:47:45;;;;;;;;;;;;;;;;;;5092884;28;1376;-49
2022/10/13 07:50:12;;;;;;;;;;;;;;;;;;5092982;28;1268;-48
2022/10/13 07:52:40;;;;;;;;;;;;;;;;;;5093074;28;1006;-51
2022/10/13 07:55:09;;;;;;;;;;;;;;;;;;5092706;28;1182;-51
2022/10/13 07:57:37;;;;;;;;;;;;;;;;;;5092911;28;1984;-48
2022/10/13 08:00:08;;;;;;;;;;;;;;;;;;5092778;28;1330;-49
2022/10/13 08:02:38;;;;;;;;;;;;;;;;;;5092398;28;1041;-50
2022/10/13 08:05:05;;;;;;;;;;;;;;;;;;5092705;28;986;-48
2022/10/13 08:07:33;;;;;;;;;;;;;;;;;;5092795;28;1223;-49
2022/10/13 08:10:00;;;;;;;;;;;;;;;;;;5092484;28;1123;-50
2022/10/13 08:12:27;;;;;;;;;;;;;;;;;;5092540;28;1275;-48
2022/10/13 08:14:54;;;;;;;;;;;;;;;;;;5092079;28;1078;-50
2022/10/13 08:17:21;;;;;;;;;;;;;;;;;;5092186;28;1913;-52
2022/10/13 08:19:49;;;;;;;;;;;;;;;;;;5092145;28;893;-51
2022/10/13 08:22:18;;;;;;;;;;;;;;;;;;5091891;28;896;-52
2022/10/13 08:24:45;;;;;;;;;;;;;;;;;;5091677;28;1266;-51
2022/10/13 08:27:17;;;;;;;;;;;;;;;;;;5103225;28;1174;-51
2022/10/13 08:29:45;;;;;;;;;;;;;;;;;;5112230;28;1296;-49
2022/10/13 08:32:12;;;;;;;;;;;;;;;;;;5112406;28;1277;-51
2022/10/13 08:34:39;;;;;;;;;;;;;;;;;;5094056;28;1016;-50
2022/10/13 08:37:11;;;;;;;;;;;;;;;;;;5091800;28;1913;-53
2022/10/13 08:39:38;;;;;;;;;;;;;;;;;;5090813;28;974;-52
2022/10/13 08:42:13;;;;;;;;;;;;;;;;;;5091954;28;1027;-51
2022/10/13 08:44:41;;;;;;;;;;;;;;;;;;5091699;28;1214;-47
2022/10/13 08:47:38;;;;;;;;;;;;;;;;;;5091756;28;1070;-54
2022/10/13 08:50:28;;;;;;;;;;;;;;;;;;5091713;28;1002;-50
2022/10/13 08:52:57;;;;;;;;;;;;;;;;;;5091706;28;1924;-50
2022/10/13 08:55:34;;;;;;;;;;;;;;;;;;5091448;28;1100;-49
2022/10/13 08:58:05;;;;;;;;;;;;;;;;;;5091589;28;1983;-44
2022/10/13 09:00:32;;;;;;;;;;;;;;;;;;5091471;28;1223;-50
2022/10/13 09:03:07;;;;;;;;;;;;;;;;;;5091497;28;1079;-51
2022/10/13 09:05:42;;;;;;;;;;;;;;;;;;5091284;28;1445;-52
2022/10/13 09:08:13;;;;;;;;;;;;;;;;;;5091544;28;1047;-52
2022/10/13 09:10:50;;;;;;;;;;;;;;;;;;5091540;28;1349;-51
2022/10/13 09:13:21;;;;;;;;;;;;;;;;;;5090861;28;1325;-50
2022/10/13 09:15:52;;;;;;;;;;;;;;;;;;5091556;28;1236;-51
2022/10/13 09:18:26;;;;;;;;;;;;;;;;;;5091369;28;1934;-51
2022/10/13 09:21:07;;;;;;;;;;;;;;;;;;5091197;28;1091;-52
2022/10/13 09:23:35;;;;;;;;;;;;;;;;;;5091297;28;1151;-51
2022/10/13 09:26:06;;;;;;;;;;;;;;;;;;5091121;28;1112;-51
2022/10/13 09:28:34;;;;;;;;;;;;;;;;;;5090006;28;1582;-50
2022/10/13 09:31:03;;;;;;;;;;;;;;;;;;5090965;28;1075;-54
2022/10/13 09:33:36;;;;;;;;;;;;;;;;;;5100148;28;1126;-50
2022/10/13 09:36:05;;;;;;;;;;;;;;;;;;5111391;28;1227;-49
2022/10/13 09:38:33;;;;;;;;;;;;;;;;;;5111663;28;1977;-53
2022/10/13 09:41:03;;;;;;;;;;;;;;;;;;5111445;28;1006;-49
2022/10/13 09:43:46;;;;;;;;;;;;;;;;;;5101344;28;1099;-52
2022/10/13 09:46:24;;;;;;;;;;;;;;;;;;5090962;28;1014;-49
2022/10/13 09:48:53;;;;;;;;;;;;;;;;;;5108533;28;991;-52
2022/10/13 09:51:32;;;;;;;;;;;;;;;;;;5111197;28;998;-52
2022/10/13 09:54:26;;;;;;;;;;;;;;;;;;5111320;28;895;-51
2022/10/13 09:56:58;;;;;;;;;;;;;;;;;;5111278;28;1052;-53
2022/10/13 09:59:26;;;;;;;;;;;;;;;;;;5109926;28;1978;-52
2022/10/13 10:01:55;;;;;;;;;;;;;;;;;;5111044;28;1191;-51
2022/10/13 10:04:24;;;;;;;;;;;;;;;;;;5110858;28;1090;-51
2022/10/13 10:06:51;;;;;;;;;;;;;;;;;;5111220;28;996;-51
2022/10/13 10:09:26;;;;;;;;;;;;;;;;;;5111274;28;947;-52
2022/10/13 10:11:56;;;;;;;;;;;;;;;;;;5111068;28;1189;-50
2022/10/13 10:14:28;;;;;;;;;;;;;;;;;;5111311;28;1080;-55
2022/10/13 10:17:03;;;;;;;;;;;;;;;;;;5110716;28;1196;-52
2022/10/13 10:19:30;;;;;;;;;;;;;;;;;;5111021;28;1902;-51
2022/10/13 10:22:03;;;;;;;;;;;;;;;;;;5111072;28;1070;-52
2022/10/13 10:24:41;;;;;;;;;;;;;;;;;;5110737;28;972;-50
2022/10/13 10:27:46;;;;;;;;;;;;;;;;;;5110879;28;923;-48
2022/10/13 10:30:15;;;;;;;;;;;;;;;;;;5068236;28;1773;-51
2022/10/13 10:32:49;;;;;;;;;;;;;;;;;;5068072;28;1148;-52
2022/10/13 10:35:34;;;;;;;;;;;;;;;;;;5080679;28;1080;-52
2022/10/13 10:38:19;;;;;;;;;;;;;;;;;;5090457;28;1922;-49
2022/10/13 10:40:47;;;;;;;;;;;;;;;;;;5094077;28;1030;-50
2022/10/13 10:43:26;;;;;;;;;;;;;;;;;;5094192;28;1396;-49
2022/10/13 10:45:57;;;;;;;;;;;;;;;;;;5093834;28;898;-50
2022/10/13 10:48:29;;;;;;;;;;;;;;;;;;5094108;28;1564;-53
2022/10/13 10:50:57;;;;;;;;;;;;;;;;;;5093943;28;1009;-51
2022/10/13 10:53:30;;;;;;;;;;;;;;;;;;5093694;28;1152;-50
2022/10/13 10:56:04;;;;;;;;;;;;;;;;;;5093749;28;1359;-48
2022/10/13 10:58:34;;;;;;;;;;;;;;;;;;5093665;28;1898;-53
2022/10/13 11:01:15;;;;;;;;;;;;;;;;;;5093538;28;1124;-53
2022/10/13 11:03:48;;;;;;;;;;;;;;;;;;5093743;28;962;-50
2022/10/13 11:06:15;;;;;;;;;;;;;;;;;;5094246;28;1054;-51
2022/10/13 11:08:45;;;;;;;;;;;;;;;;;;5093620;28;1083;-45
2022/10/13 11:11:18;;;;;;;;;;;;;;;;;;5093883;28;1065;-49
2022/10/13 11:13:56;;;;;;;;;;;;;;;;;;5092181;28;1211;-49
2022/10/13 11:16:26;;;;;;;;;;;;;;;;;;5093469;28;1010;-47
2022/10/13 11:18:53;;;;;;;;;;;;;;;;;;5093405;28;1910;-49
2022/10/13 11:21:23;;;;;;;;;;;;;;;;;;5095018;28;928;-52
2022/10/13 11:23:50;;;;;;;;;;;;;;;;;;5113575;28;1211;-51
2022/10/13 11:26:31;;;;;;;;;;;;;;;;;;5113826;28;1147;-49
2022/10/13 11:28:58;;;;;;;;;;;;;;;;;;5113661;28;1082;-50
2022/10/13 11:31:30;;;;;;;;;;;;;;;;;;5113671;28;1067;-52
2022/10/13 11:34:00;;;;;;;;;;;;;;;;;;5100315;28;1283;-51
2022/10/13 11:36:28;;;;;;;;;;;;;;;;;;5093162;28;895;-54
2022/10/13 11:39:07;;;;;;;;;;;;;;;;;;5093000;28;1926;-54
2022/10/13 11:42:03;;;;;;;;;;;;;;;;;;5092925;28;1198;-51
2022/10/13 11:44:38;;;;;;;;;;;;;;;;;;5083850;28;1264;-49
2022/10/13 11:47:15;;;;;;;;;;;;;;;;;;5092903;28;1054;-50
2022/10/13 11:49:49;;;;;;;;;;;;;;;;;;5092720;28;1235;-51
2022/10/13 11:52:16;;;;;;;;;;;;;;;;;;5091745;28;1699;-50
2022/10/13 11:54:49;;;;;;;;;;;;;;;;;;5092383;28;1038;-50
2022/10/13 11:57:18;;;;;;;;;;;;;;;;;;5092580;28;983;-50
2022/10/13 11:59:46;;;;;;;;;;;;;;;;;;5092187;28;1991;-51
2022/10/13 12:02:15;;;;;;;;;;;;;;;;;;5092382;28;1104;-49
2022/10/13 12:04:59;;;;;;;;;;;;;;;;;;5092754;28;907;-48
2022/10/13 12:07:31;;;;;;;;;;;;;;;;;;5092727;28;1168;-51
2022/10/13 12:09:58;;;;;;;;;;;;;;;;;;5092619;28;983;-50
2022/10/13 12:12:25;;;;;;;;;;;;;;;;;;5091134;28;1286;-49
2022/10/13 12:14:53;;;;;;;;;;;;;;;;;;5092213;28;1179;-49
2022/10/13 12:17:27;;;;;;;;;;;;;;;;;;5091040;28;2323;-47
2022/10/13 12:20:23;;;;;;;;;;;;;;;;;;5092126;28;1990;-48
2022/10/13 12:22:51;;;;;;;;;;;;;;;;;;5086927;28;1394;-49
2022/10/13 12:25:19;;;;;;;;;;;;;;;;;;5092485;28;1150;-51
2022/10/13 12:27:52;;;;;;;;;;;;;;;;;;5092443;28;1223;-50
2022/10/13 12:30:22;;;;;;;;;;;;;;;;;;5092190;28;1180;-47
2022/10/13 12:32:51;;;;;;;;;;;;;;;;;;5095156;28;1226;-49
2022/10/13 12:35:19;;;;;;;;;;;;;;;;;;5112868;28;1102;-49
2022/10/13 12:37:47;;;;;;;;;;;;;;;;;;5112318;28;1094;-49
2022/10/13 12:40:15;;;;;;;;;;;;;;;;;;5112197;28;1979;-45
2022/10/13 12:42:42;;;;;;;;;;;;;;;;;;5112171;28;1026;-50
2022/10/13 12:45:13;;;;;;;;;;;;;;;;;;5112205;28;1565;-49
2022/10/13 12:47:44;;;;;;;;;;;;;;;;;;5112164;28;1056;-51
2022/10/13 12:50:26;;;;;;;;;;;;;;;;;;5112122;28;1085;-53
2022/10/13 12:53:12;;;;;;;;;;;;;;;;;;5112309;28;1055;-48
2022/10/13 12:55:47;;;;;;;;;;;;;;;;;;5111975;28;1005;-48
2022/10/13 12:58:18;;;;;;;;;;;;;;;;;;5111816;28;1906;-52
2022/10/13 13:00:54;;;;;;;;;;;;;;;;;;5111757;28;1276;-48
2022/10/13 13:03:24;;;;;;;;;;;;;;;;;;5111555;28;990;-47
2022/10/13 13:06:05;;;;;;;;;;;;;;;;;;5112125;28;922;-47
2022/10/13 13:08:33;;;;;;;;;;;;;;;;;;5111744;28;985;-50
2022/10/13 13:11:05;;;;;;;;;;;;;;;;;;5111768;28;1137;-46
2022/10/13 13:13:33;;;;;;;;;;;;;;;;;;5111803;28;1421;-50
2022/10/13 13:16:19;;;;;;;;;;;;;;;;;;5111802;28;897;-46
2022/10/13 13:18:47;;;;;;;;;;;;;;;;;;5111474;28;1910;-50
2022/10/13 13:21:17;;;;;;;;;;;;;;;;;;5111453;28;1062;-53
2022/10/13 13:23:46;;;;;;;;;;;;;;;;;;5111673;28;908;-51
2022/10/13 13:26:16;;;;;;;;;;;;;;;;;;5111481;28;1102;-49
2022/10/13 13:28:48;;;;;;;;;;;;;;;;;;5111555;28;973;-49
2022/10/13 13:31:16;;;;;;;;;;;;;;;;;;5111531;28;1147;-48
2022/10/13 13:33:45;;;;;;;;;;;;;;;;;;5100414;28;1280;-46
2022/10/13 13:36:22;;;;;;;;;;;;;;;;;;5091079;28;953;-52
2022/10/13 13:38:50;;;;;;;;;;;;;;;;;;5090966;28;1910;-49
2022/10/13 13:41:18;;;;;;;;;;;;;;;;;;5091155;28;915;-52
2022/10/13 13:43:45;;;;;;;;;;;;;;;;;;5091189;28;1136;-50
2022/10/13 13:46:16;;;;;;;;;;;;;;;;;;5091132;28;939;-50
2022/10/13 13:48:44;;;;;;;;;;;;;;;;;;5090894;28;991;-49
2022/10/13 13:51:11;;;;;;;;;;;;;;;;;;5090941;28;1280;-46
2022/10/13 13:53:38;;;;;;;;;;;;;;;;;;5090703;28;928;-51
2022/10/13 13:56:08;;;;;;;;;;;;;;;;;;5091038;28;1054;-48
2022/10/13 13:58:35;;;;;;;;;;;;;;;;;;5090650;28;2435;-45
2022/10/13 14:01:02;;;;;;;;;;;;;;;;;;5091097;28;1213;-47
2022/10/13 14:03:31;;;;;;;;;;;;;;;;;;5090957;28;1093;-46
2022/10/13 14:05:58;;;;;;;;;;;;;;;;;;5091056;28;995;-48
2022/10/13 14:08:30;;;;;;;;;;;;;;;;;;5089732;28;1368;-41
2022/10/13 14:10:58;;;;;;;;;;;;;;;;;;5091010;28;1102;-47
2022/10/13 14:13:25;;;;;;;;;;;;;;;;;;5092848;28;975;-47
2022/10/13 14:15:56;;;;;;;;;;;;;;;;;;5094537;28;1368;-50
2022/10/13 14:18:24;;;;;;;;;;;;;;;;;;5094517;28;1142;-50
2022/10/13 14:20:51;;;;;;;;;;;;;;;;;;5094264;28;1914;-50
2022/10/13 14:23:20;;;;;;;;;;;;;;;;;;5094486;28;1171;-48
2022/10/13 14:25:47;;;;;;;;;;;;;;;;;;5094326;28;1179;-51
2022/10/13 14:28:15;;;;;;;;;;;;;;;;;;5094678;28;958;-48
2022/10/13 14:30:44;;;;;;;;;;;;;;;;;;5094438;28;1088;-51
2022/10/13 14:33:11;;;;;;;;;;;;;;;;;;5100011;28;1166;-47
2022/10/13 14:35:38;;;;;;;;;;;;;;;;;;5114531;28;926;-50
2022/10/13 14:38:06;;;;;;;;;;;;;;;;;;5114812;28;1711;-44
2022/10/13 14:40:39;;;;;;;;;;;;;;;;;;5114613;28;1905;-49
2022/10/13 14:43:06;;;;;;;;;;;;;;;;;;5114737;28;1088;-50
2022/10/13 14:45:33;;;;;;;;;;;;;;;;;;5114332;28;983;-49
2022/10/13 14:48:00;;;;;;;;;;;;;;;;;;5114644;28;1160;-46
2022/10/13 14:50:27;;;;;;;;;;;;;;;;;;5113678;28;919;-47
2022/10/13 14:52:54;;;;;;;;;;;;;;;;;;5114175;28;1499;-49
2022/10/13 14:55:26;;;;;;;;;;;;;;;;;;5114263;28;1166;-48
2022/10/13 14:57:54;;;;;;;;;;;;;;;;;;5114373;28;1187;-47
2022/10/13 15:00:21;;;;;;;;;;;;;;;;;;5113884;28;1905;-51
2022/10/13 15:02:48;;;;;;;;;;;;;;;;;;5114190;28;1234;-50
2022/10/13 15:05:15;;;;;;;;;;;;;;;;;;5114008;27;919;-53
2022/10/13 15:07:42;;;;;;;;;;;;;;;;;;5114002;28;929;-52
2022/10/13 15:10:09;;;;;;;;;;;;;;;;;;5113791;28;1171;-53
2022/10/13 15:12:37;;;;;;;;;;;;;;;;;;5113914;28;1053;-50
2022/10/13 15:15:04;;;;;;;;;;;;;;;;;;5113693;28;969;-44
2022/10/13 15:17:32;;;;;;;;;;;;;;;;;;5114289;27;912;-47
2022/10/13 15:19:59;;;;;;;;;;;;;;;;;;5114198;28;1989;-46
2022/10/13 15:22:26;;;;;;;;;;;;;;;;;;5113703;28;946;-51
2022/10/13 15:24:53;;;;;;;;;;;;;;;;;;5113044;28;1235;-51
2022/10/13 15:27:20;;;;;;;;;;;;;;;;;;5113420;28;910;-52
2022/10/13 15:29:47;;;;;;;;;;;;;;;;;;5113803;28;1007;-48
2022/10/13 15:32:16;;;;;;;;;;;;;;;;;;5113406;28;1106;-51
2022/10/13 15:34:48;;;;;;;;;;;;;;;;;;5093669;27;1193;-51
2022/10/13 15:37:15;;;;;;;;;;;;;;;;;;5093012;28;1163;-49
2022/10/13 15:39:42;;;;;;;;;;;;;;;;;;5091764;28;1914;-51
2022/10/13 15:42:10;;;;;;;;;;;;;;;;;;5092944;28;981;-53
2022/10/13 15:44:37;;;;;;;;;;;;;;;;;;5093128;28;1153;-48
2022/10/13 15:47:24;;;;;;;;;;;;;;;;;;5092948;28;1375;-53
2022/10/13 15:49:51;;;;;;;;;;;;;;;;;;5092546;28;946;-50
2022/10/13 15:52:18;;;;;;;;;;;;;;;;;;5092421;28;1193;-49
2022/10/13 15:54:50;;;;;;;;;;;;;;;;;;5092744;28;971;-51
2022/10/13 15:57:17;;;;;;;;;;;;;;;;;;5092753;28;982;-43
2022/10/13 15:59:45;;;;;;;;;;;;;;;;;;5092889;28;1976;-51
2022/10/13 16:02:12;;;;;;;;;;;;;;;;;;5092461;28;1212;-46
2022/10/13 16:04:39;;;;;;;;;;;;;;;;;;5092713;28;973;-49
2022/10/13 16:07:10;;;;;;;;;;;;;;;;;;5092586;28;1414;-46
2022/10/13 16:09:37;;;;;;;;;;;;;;;;;;5092272;28;1107;-47
2022/10/13 16:12:05;;;;;;;;;;;;;;;;;;5092563;28;1154;-53
2022/10/13 16:14:32;;;;;;;;;;;;;;;;;;5092703;28;1279;-53
2022/10/13 16:16:59;;;;;;;;;;;;;;;;;;5092444;28;1062;-49
2022/10/13 16:19:26;;;;;;;;;;;;;;;;;;5092210;28;1887;-54
2022/10/13 16:21:53;;;;;;;;;;;;;;;;;;5092296;28;1209;-51
2022/10/13 16:24:20;;;;;;;;;;;;;;;;;;5092512;28;1069;-52
2022/10/13 16:26:47;;;;;;;;;;;;;;;;;;5091737;28;942;-47
2022/10/13 16:29:15;;;;;;;;;;;;;;;;;;5090901;28;946;-53
2022/10/13 16:31:43;;;;;;;;;;;;;;;;;;5090960;28;1048;-50
2022/10/13 16:34:10;;;;;;;;;;;;;;;;;;5091972;28;1186;-49
2022/10/13 16:36:38;;;;;;;;;;;;;;;;;;5091695;28;1083;-51
2022/10/13 16:39:05;;;;;;;;;;;;;;;;;;5092193;28;1020;-54
2022/10/13 16:41:33;;;;;;;;;;;;;;;;;;5091639;28;2099;-52
2022/10/13 16:44:00;;;;;;;;;;;;;;;;;;5091750;28;1111;-52
2022/10/13 16:46:27;;;;;;;;;;;;;;;;;;5091778;28;923;-46
2022/10/13 16:48:54;;;;;;;;;;;;;;;;;;5091895;28;1170;-49
2022/10/13 16:51:23;;;;;;;;;;;;;;;;;;5091954;28;1079;-54
2022/10/13 16:53:52;;;;;;;;;;;;;;;;;;5091823;28;990;-51
2022/10/13 16:56:23;;;;;;;;;;;;;;;;;;5091791;28;1295;-48
2022/10/13 16:58:53;;;;;;;;;;;;;;;;;;5089988;28;1360;-50
2022/10/13 17:01:20;;;;;;;;;;;;;;;;;;5091055;28;1926;-52
2022/10/13 17:03:49;;;;;;;;;;;;;;;;;;5091508;28;1006;-52
2022/10/13 17:06:17;;;;;;;;;;;;;;;;;;5091305;28;1078;-47
2022/10/13 17:08:47;;;;;;;;;;;;;;;;;;5091410;28;1078;-53
2022/10/13 17:11:19;;;;;;;;;;;;;;;;;;5091560;28;1058;-52
2022/10/13 17:13:49;;;;;;;;;;;;;;;;;;5091465;28;1213;-53
2022/10/13 17:16:19;;;;;;;;;;;;;;;;;;5091325;28;1056;-52
2022/10/13 17:18:50;;;;;;;;;;;;;;;;;;5091288;28;1361;-49
2022/10/13 17:21:17;;;;;;;;;;;;;;;;;;5091352;28;1912;-47
2022/10/13 17:23:45;;;;;;;;;;;;;;;;;;5091353;28;893;-52